createdAt,value
2019-05-25T00:02:44.027Z,12.5
2019-05-25T00:04:44.652Z,12.5
2019-05-25T00:07:22.228Z,12.5
2019-05-25T00:09:21.801Z,12.5
2019-05-25T00:11:22.291Z,12.6
2019-05-25T00:13:21.935Z,12.6
2019-05-25T00:15:22.409Z,12.7
2019-05-25T00:17:21.857Z,12.7
2019-05-25T00:19:22.358Z,12.7
2019-05-25T00:21:21.831Z,12.7
2019-05-25T00:23:22.338Z,12.7
2019-05-25T00:25:21.687Z,12.7
2019-05-25T00:27:22.117Z,12.7
2019-05-25T00:29:22.620Z,12.7
2019-05-25T00:31:22.203Z,12.8
2019-05-25T00:33:21.849Z,12.8
2019-05-25T00:35:22.334Z,12.8
2019-05-25T00:37:22.302Z,12.8
2019-05-25T00:39:20.319Z,12.8
2019-05-25T00:41:21.656Z,12.8
2019-05-25T00:43:22.050Z,12.8
2019-05-25T00:45:22.430Z,12.8
2019-05-25T00:47:22.004Z,12.8
2019-05-25T00:49:22.552Z,12.8
2019-05-25T00:51:22.265Z,12.8
2019-05-25T00:53:21.767Z,12.8
2019-05-25T00:55:22.203Z,12.7
2019-05-25T00:57:21.611Z,12.7
2019-05-25T00:59:22.049Z,12.7
2019-05-25T01:01:25.071Z,12.5
2019-05-25T01:03:22.568Z,12.5
2019-05-25T01:05:21.972Z,12.4
2019-05-25T01:07:22.519Z,12.4
2019-05-25T01:09:22.138Z,12.4
2019-05-25T01:11:22.606Z,12.4
2019-05-25T01:13:22.184Z,12.4
2019-05-25T01:15:21.621Z,12.3
2019-05-25T01:17:22.098Z,12.3
2019-05-25T01:19:21.763Z,12.3
2019-05-25T01:21:22.310Z,12.3
2019-05-25T01:23:21.707Z,12.3
2019-05-25T01:25:22.405Z,12.4
2019-05-25T01:27:21.932Z,12.4
2019-05-25T01:29:22.524Z,12.4
2019-05-25T01:31:21.999Z,12.4
2019-05-25T01:33:22.681Z,12.4
2019-05-25T01:35:22.257Z,12.3
2019-05-25T01:37:21.727Z,12.3
2019-05-25T01:39:22.258Z,12.3
2019-05-25T01:41:21.722Z,12.3
2019-05-25T01:43:22.232Z,12.3
2019-05-25T01:45:21.663Z,12.3
2019-05-25T01:47:22.112Z,12.3
2019-05-25T01:49:21.759Z,12.3
2019-05-25T01:51:22.298Z,12.3
2019-05-25T01:53:21.856Z,12.3
2019-05-25T01:55:22.266Z,12.3
2019-05-25T01:57:21.783Z,12.3
2019-05-25T01:59:22.426Z,12.3
2019-05-25T02:01:21.889Z,12.2
2019-05-25T02:03:22.383Z,12.2
2019-05-25T02:04:51.826Z,12.2
2019-05-25T02:06:47.240Z,12.2
2019-05-25T02:07:24.571Z,12.2
2019-05-25T02:09:25.050Z,12.2
2019-05-25T02:11:24.531Z,12.2
2019-05-25T02:13:25.012Z,12.1
2019-05-25T02:15:24.453Z,12.1
2019-05-25T02:17:24.900Z,12.1
2019-05-25T02:19:24.507Z,12.1
2019-05-25T02:21:25.032Z,12.1
2019-05-25T02:23:24.385Z,12.1
2019-05-25T02:25:24.833Z,12.1
2019-05-25T02:27:24.314Z,12.1
2019-05-25T02:29:24.781Z,12.1
2019-05-25T02:31:24.394Z,12.1
2019-05-25T02:33:24.802Z,12.1
2019-05-25T02:35:24.211Z,12.1
2019-05-25T02:37:24.597Z,12.1
2019-05-25T02:39:25.067Z,12.1
2019-05-25T02:41:24.641Z,12.1
2019-05-25T02:43:25.057Z,12.1
2019-05-25T02:45:24.517Z,12.1
2019-05-25T02:47:24.995Z,12.1
2019-05-25T02:49:24.440Z,12
2019-05-25T02:51:24.960Z,12
2019-05-25T02:53:24.428Z,12
2019-05-25T02:55:35.671Z,12
2019-05-25T02:57:24.264Z,12
2019-05-25T02:59:24.648Z,12
2019-05-25T03:01:25.153Z,12
2019-05-25T03:03:24.621Z,11.9
2019-05-25T03:05:25.104Z,11.9
2019-05-25T03:07:34.952Z,11.9
2019-05-25T03:09:26.541Z,11.9
2019-05-25T03:11:25.202Z,11.9
2019-05-25T03:13:24.625Z,11.8
2019-05-25T03:15:25.055Z,11.8
2019-05-25T03:17:24.611Z,11.8
2019-05-25T03:19:25.174Z,11.8
2019-05-25T03:21:24.589Z,11.8
2019-05-25T03:23:25.178Z,11.8
2019-05-25T03:25:24.607Z,11.8
2019-05-25T03:27:25.116Z,11.8
2019-05-25T03:29:24.585Z,11.9
2019-05-25T03:31:25.199Z,11.9
2019-05-25T03:33:24.639Z,12
2019-05-25T03:35:25.150Z,12
2019-05-25T03:37:24.828Z,12
2019-05-25T03:39:24.425Z,12.2
2019-05-25T03:41:25.146Z,12.2
2019-05-25T03:43:24.513Z,12.2
2019-05-25T03:45:24.999Z,12.2
2019-05-25T03:47:24.539Z,12.2
2019-05-25T03:49:25.077Z,12.3
2019-05-25T04:31:18.297Z,12.7
2019-05-25T04:32:36.756Z,12.7
2019-05-25T04:34:36.251Z,12.7
2019-05-25T04:36:36.603Z,12.9
2019-05-25T04:38:36.175Z,12.9
2019-05-25T04:40:36.610Z,12.9
2019-05-25T04:42:36.131Z,13.1
2019-05-25T04:44:36.565Z,13.1
2019-05-25T04:46:36.024Z,13.3
2019-05-25T04:54:35.877Z,13.6
2019-05-25T04:56:40.689Z,13.6
2019-05-25T04:58:36.121Z,13.7
2019-05-25T05:02:36.706Z,13.7
2019-05-25T05:04:36.214Z,13.7
2019-05-25T05:06:36.727Z,13.7
2019-05-25T05:08:36.444Z,13.9
2019-05-25T05:10:35.987Z,13.9
2019-05-25T05:12:36.539Z,13.9
2019-05-25T05:14:36.078Z,14
2019-05-25T05:16:36.517Z,14
2019-05-25T05:18:35.984Z,14.1
2019-05-25T05:20:36.523Z,14.1
2019-05-25T05:22:36.015Z,14.1
2019-05-25T05:24:36.461Z,14.3
2019-05-25T05:26:35.960Z,14.3
2019-05-25T05:28:36.954Z,14.4
2019-05-25T05:30:36.371Z,14.4
2019-05-25T05:32:35.874Z,14.4
2019-05-25T05:34:36.329Z,14.6
2019-05-25T05:36:36.768Z,14.6
2019-05-25T06:06:37.686Z,13.6
2019-05-25T06:08:36.067Z,13.6
2019-05-25T06:10:36.454Z,13.6
2019-05-25T07:08:39.984Z,13.6
2019-05-25T07:09:14.383Z,12.5
2019-05-25T07:10:35.857Z,12.5
2019-05-25T07:12:36.239Z,12.5
2019-05-25T07:22:40.013Z,12.5
2019-05-25T07:24:36.425Z,12.4
2019-05-25T07:36:45.662Z,12.4
2019-05-25T07:38:36.109Z,12.2
2019-05-25T07:45:07.608Z,12.2
2019-05-25T07:46:35.902Z,12.2
2019-05-25T07:48:36.415Z,12.2
2019-05-25T07:55:29.757Z,12.2
2019-05-25T07:56:36.392Z,12.2
2019-05-25T08:06:35.495Z,12.4
2019-05-25T08:14:36.760Z,12.3
2019-05-25T08:16:36.305Z,12.2
2019-05-25T08:22:35.475Z,12.2
2019-05-25T08:24:35.969Z,12.2
2019-05-25T08:26:36.500Z,12.3
2019-05-25T08:28:35.901Z,12.3
2019-05-25T08:31:30.180Z,12.3
2019-05-25T08:32:36.110Z,12.3
2019-05-25T08:34:35.568Z,12.5
2019-05-25T08:36:36.250Z,12.5
2019-05-25T08:38:35.775Z,12.6
2019-05-25T08:40:35.409Z,12.6
2019-05-25T08:42:35.814Z,12.6
2019-05-25T08:44:36.245Z,12.6
2019-05-25T08:46:35.758Z,12.6
2019-05-25T08:48:36.247Z,12.7
2019-05-25T08:50:39.313Z,12.7
2019-05-25T08:52:35.793Z,12.8
2019-05-25T08:54:36.320Z,12.8
2019-05-25T08:56:35.841Z,12.8
2019-05-25T08:58:49.346Z,12.9
2019-05-25T09:00:35.618Z,12.9
2019-05-25T09:02:36.020Z,12.9
2019-05-25T09:04:35.418Z,12.9
2019-05-25T09:06:35.942Z,12.9
2019-05-25T09:08:35.385Z,13
2019-05-25T09:10:35.883Z,13
2019-05-25T09:12:35.317Z,13.1
2019-05-25T09:14:35.813Z,13.1
2019-05-25T09:16:36.418Z,13.1
2019-05-25T09:18:36.046Z,13.6
2019-05-25T09:20:36.048Z,13.6
2019-05-25T09:22:33.954Z,13.8
2019-05-25T09:24:35.370Z,13.8
2019-05-25T09:26:35.941Z,13.8
2019-05-25T09:28:35.466Z,14.2
2019-05-25T09:30:35.952Z,14.2
2019-05-25T09:32:35.496Z,14.7
2019-05-25T09:34:36.175Z,14.7
2019-05-25T09:36:35.592Z,14.7
2019-05-25T09:38:36.207Z,14.9
2019-05-25T09:52:42.913Z,14.9
2019-05-25T09:54:35.422Z,15.5
2019-05-25T09:56:35.860Z,15.5
2019-05-25T09:58:35.467Z,15.8
2019-05-25T10:00:40.993Z,15.8
2019-05-25T10:02:35.944Z,15.8
2019-05-25T10:04:33.451Z,15.8
2019-05-25T10:06:35.768Z,15.8
2019-05-25T10:08:35.365Z,16.1
2019-05-25T10:10:35.795Z,16.1
2019-05-25T10:12:35.311Z,16.1
2019-05-25T10:14:35.853Z,16.1
2019-05-25T10:16:35.191Z,16.1
2019-05-25T10:18:35.814Z,15.8
2019-05-25T10:20:35.347Z,15.8
2019-05-25T10:22:35.722Z,15.6
2019-05-25T10:24:35.236Z,15.6
2019-05-25T10:26:35.669Z,15.6
2019-05-25T10:28:36.230Z,15.5
2019-05-25T10:30:35.740Z,15.5
2019-05-25T10:32:35.352Z,15.1
2019-05-25T10:34:35.931Z,15.1
2019-05-25T10:36:35.410Z,15.1
2019-05-25T10:38:35.925Z,15
2019-05-25T10:40:35.582Z,15
2019-05-25T10:42:35.957Z,15.1
2019-05-25T10:44:35.722Z,15.1
2019-05-25T10:46:36.181Z,15.1
2019-05-25T10:48:35.787Z,15.2
2019-05-25T10:50:35.318Z,15.2
2019-05-25T10:52:35.595Z,15.2
2019-05-25T10:54:36.138Z,15.2
2019-05-25T10:56:35.534Z,15.2
2019-05-25T10:58:36.138Z,15.1
2019-05-25T11:00:35.723Z,15.1
2019-05-25T11:02:36.173Z,15.1
2019-05-25T11:04:35.715Z,15.1
2019-05-25T11:06:35.576Z,15.1
2019-05-25T11:08:36.049Z,14.7
2019-05-25T11:10:35.506Z,14.7
2019-05-25T11:12:35.872Z,14.5
2019-05-25T11:14:35.414Z,14.5
2019-05-25T11:16:35.903Z,14.5
2019-05-25T11:18:35.506Z,14.3
2019-05-25T11:20:35.959Z,14.3
2019-05-25T11:22:35.343Z,14.1
2019-05-25T11:24:35.825Z,14.1
2019-05-25T11:26:35.265Z,14.1
2019-05-25T11:28:35.676Z,14.1
2019-05-25T11:30:35.325Z,14.1
2019-05-25T11:32:35.728Z,14.2
2019-05-25T11:34:35.238Z,14.2
2019-05-25T11:36:35.651Z,14.2
2019-05-25T11:38:36.659Z,14.2
2019-05-25T11:40:36.115Z,14.2
2019-05-25T11:42:35.567Z,14.2
2019-05-25T11:44:36.106Z,14.2
2019-05-25T11:46:35.566Z,14.2
2019-05-25T11:48:36.196Z,14.2
2019-05-25T11:50:35.699Z,14.2
2019-05-25T11:52:36.118Z,14.2
2019-05-25T11:54:35.539Z,14.2
2019-05-25T11:56:36.032Z,14.2
2019-05-25T11:58:48.286Z,14.1
2019-05-25T12:02:36.089Z,14.1
2019-05-25T12:04:35.559Z,14.1
2019-05-25T12:06:36.103Z,14.1
2019-05-25T12:08:35.566Z,13.8
2019-05-25T12:10:36.088Z,13.8
2019-05-25T12:12:35.493Z,13.7
2019-05-25T12:14:35.983Z,13.7
2019-05-25T12:16:35.552Z,13.7
2019-05-25T12:18:36.079Z,13.8
2019-05-25T12:20:35.871Z,13.8
2019-05-25T12:22:35.301Z,13.9
2019-05-25T12:24:35.785Z,13.9
2019-05-25T12:26:35.361Z,13.9
2019-05-25T12:28:35.796Z,13.9
2019-05-25T12:30:41.920Z,13.9
2019-05-25T12:34:35.355Z,14.4
2019-05-25T12:36:35.950Z,14.4
2019-05-25T12:38:35.519Z,15.2
2019-05-25T12:40:36.034Z,15.2
2019-05-25T12:42:35.445Z,15.3
2019-05-25T12:44:36.340Z,15.3
2019-05-25T12:46:35.277Z,15.3
2019-05-25T12:48:35.705Z,15.3
2019-05-25T12:50:36.013Z,15.3
2019-05-25T12:52:35.622Z,15.2
2019-05-25T12:54:35.390Z,15.2
2019-05-25T12:56:35.927Z,15.2
2019-05-25T12:58:35.653Z,16.1
2019-05-25T13:00:36.226Z,16.1
2019-05-25T13:02:35.660Z,16.1
2019-05-25T13:04:36.251Z,16.1
2019-05-25T13:06:35.769Z,16.1
2019-05-25T13:08:35.251Z,16.9
2019-05-25T13:10:35.879Z,16.9
2019-05-25T13:12:35.336Z,17.3
2019-05-25T13:14:35.842Z,17.3
2019-05-25T13:16:35.489Z,17.3
2019-05-25T13:18:36.080Z,17.5
2019-05-25T13:20:35.658Z,17.5
2019-05-25T13:22:36.077Z,17.1
2019-05-25T13:24:35.808Z,17.1
2019-05-25T13:26:35.541Z,17.1
2019-05-25T13:28:36.106Z,17.2
2019-05-25T13:30:35.701Z,17.2
2019-05-25T13:32:36.156Z,16.4
2019-05-25T13:34:35.639Z,16.4
2019-05-25T13:36:36.204Z,16.4
2019-05-25T13:38:35.711Z,16.3
2019-05-25T13:40:35.483Z,16.3
2019-05-25T13:42:35.996Z,16.3
2019-05-25T13:44:35.459Z,16.3
2019-05-25T13:46:36.018Z,16.3
2019-05-25T13:48:35.595Z,16.2
2019-05-25T13:50:36.029Z,16.2
2019-05-25T13:52:35.493Z,15.4
2019-05-25T13:54:35.885Z,15.4
2019-05-25T13:56:35.716Z,15.4
2019-05-25T13:58:39.739Z,16.1
2019-05-25T14:02:36.216Z,16.1
2019-05-25T14:04:35.714Z,16.1
2019-05-25T14:06:35.468Z,16.1
2019-05-25T14:08:35.943Z,17.8
2019-05-25T14:10:35.437Z,17.8
2019-05-25T14:12:35.916Z,18.2
2019-05-25T14:14:35.485Z,18.2
2019-05-25T14:16:36.070Z,18.2
2019-05-25T14:18:35.684Z,18.4
2019-05-25T14:20:36.307Z,18.4
2019-05-25T14:22:35.690Z,18.4
2019-05-25T14:24:36.275Z,18.4
2019-05-25T14:26:35.826Z,18.4
2019-05-25T14:28:35.356Z,18.3
2019-05-25T14:30:35.837Z,18.3
2019-05-25T14:32:35.304Z,17.9
2019-05-25T14:34:35.755Z,17.9
2019-05-25T14:36:36.199Z,17.9
2019-05-25T14:38:35.814Z,17.9
2019-05-25T14:40:35.509Z,17.9
2019-05-25T14:42:35.947Z,18.1
2019-05-25T14:44:35.590Z,18.1
2019-05-25T14:46:35.951Z,18.1
2019-05-25T14:48:35.474Z,18
2019-05-25T14:50:35.969Z,18
2019-05-25T14:52:35.436Z,17.7
2019-05-25T14:54:35.946Z,17.7
2019-05-25T14:56:35.476Z,17.7
2019-05-25T14:58:36.192Z,17.8
2019-05-25T15:00:35.866Z,17.8
2019-05-25T15:02:35.388Z,17.8
2019-05-25T15:04:35.880Z,17.8
2019-05-25T15:06:35.411Z,17.8
2019-05-25T15:08:35.834Z,18
2019-05-25T15:10:35.542Z,18
2019-05-25T15:12:35.913Z,17.8
2019-05-25T15:14:35.408Z,17.8
2019-05-25T15:16:36.036Z,17.8
2019-05-25T15:18:35.742Z,17.5
2019-05-25T15:20:36.334Z,17.5
2019-05-25T15:22:35.912Z,17.4
2019-05-25T15:24:35.388Z,17.4
2019-05-25T15:26:35.840Z,17.4
2019-05-25T15:28:35.853Z,17.4
2019-05-25T15:30:33.931Z,17.4
2019-05-25T15:32:35.260Z,17.5
2019-05-25T15:34:35.822Z,17.5
2019-05-25T15:36:35.330Z,17.5
2019-05-25T15:38:35.833Z,17.5
2019-05-25T15:40:39.250Z,17.5
2019-05-25T15:42:35.610Z,17.5
2019-05-25T15:44:36.147Z,17.5
2019-05-25T15:46:35.596Z,17.5
2019-05-25T15:48:36.097Z,17.5
2019-05-25T15:50:35.617Z,17.5
2019-05-25T15:52:36.059Z,17.4
2019-05-25T15:54:35.728Z,17.4
2019-05-25T15:56:36.318Z,17.4
2019-05-25T15:58:35.852Z,17.4
2019-05-25T16:02:37.827Z,17.4
2019-05-25T16:04:36.287Z,17.4
2019-05-25T16:06:35.860Z,17.4
2019-05-25T16:08:35.369Z,17.1
2019-05-25T16:10:35.841Z,17.1
2019-05-25T16:12:35.354Z,16.8
2019-05-25T16:14:35.852Z,16.8
2019-05-25T16:16:35.432Z,16.8
2019-05-25T16:18:35.933Z,16.6
2019-05-25T16:20:35.346Z,16.6
2019-05-25T16:22:35.737Z,16.4
2019-05-25T16:24:35.344Z,16.4
2019-05-25T16:26:47.170Z,16.4
2019-05-25T16:28:36.155Z,16.2
2019-05-25T16:30:36.145Z,16.2
2019-05-25T16:32:34.138Z,16
2019-05-25T16:34:34.051Z,16
2019-05-25T16:36:35.470Z,16
2019-05-25T16:38:35.931Z,15.7
2019-05-25T16:40:35.470Z,15.7
2019-05-25T16:42:35.938Z,15.5
2019-05-25T16:44:35.506Z,15.5
2019-05-25T16:46:36.138Z,15.5
2019-05-25T16:48:35.630Z,15.4
2019-05-25T16:50:36.098Z,15.4
2019-05-25T16:52:35.531Z,15.2
2019-05-25T16:54:36.120Z,15.2
2019-05-25T16:56:35.652Z,15.2
2019-05-25T16:58:36.204Z,15.1
2019-05-25T17:00:35.749Z,15.1
2019-05-25T17:02:35.492Z,15.1
2019-05-25T17:04:36.119Z,15.1
2019-05-25T17:06:36.225Z,15.1
2019-05-25T17:08:34.309Z,15.1
2019-05-25T17:10:35.892Z,15.1
2019-05-25T17:12:35.307Z,15
2019-05-25T17:14:35.927Z,15
2019-05-25T17:16:36.006Z,15
2019-05-25T17:18:35.637Z,14.8
2019-05-25T17:20:36.148Z,14.8
2019-05-25T17:22:35.558Z,14.6
2019-05-25T17:24:36.037Z,14.6
2019-05-25T17:26:35.520Z,14.6
2019-05-25T17:28:36.105Z,14.5
2019-05-25T17:30:35.621Z,14.5
2019-05-25T17:32:36.529Z,14.5
2019-05-25T17:34:35.978Z,14.5
2019-05-25T17:36:35.437Z,14.5
2019-05-25T17:38:36.215Z,14.3
2019-05-25T17:40:35.665Z,14.3
2019-05-25T17:42:36.103Z,14.1
2019-05-25T17:44:35.622Z,14.1
2019-05-25T17:46:36.265Z,14.1
2019-05-25T17:48:36.348Z,14
2019-05-25T17:50:34.343Z,14
2019-05-25T17:52:35.765Z,14
2019-05-25T17:54:35.320Z,14
2019-05-25T17:56:35.740Z,14
2019-05-25T17:58:35.223Z,13.8
2019-05-25T18:00:35.714Z,13.8
2019-05-25T18:02:36.194Z,13.8
2019-05-25T18:04:35.829Z,13.8
2019-05-25T18:06:35.408Z,13.8
2019-05-25T18:08:35.925Z,14
2019-05-25T18:10:55.149Z,14
2019-05-25T18:12:35.770Z,14.1
2019-05-25T18:14:35.215Z,14.1
2019-05-25T18:16:35.643Z,14.1
2019-05-25T18:18:35.209Z,14.1
2019-05-25T18:20:35.816Z,14.1
2019-05-25T18:22:35.232Z,14.1
2019-05-25T18:24:35.731Z,14.1
2019-05-25T18:26:36.238Z,14.1
2019-05-25T18:28:35.721Z,14
2019-05-25T18:30:36.243Z,14
2019-05-25T18:32:35.658Z,14
2019-05-25T18:34:36.165Z,14
2019-05-25T18:36:35.588Z,14
2019-05-25T18:38:36.132Z,14
2019-05-25T18:40:35.643Z,14
2019-05-25T18:42:36.123Z,14
2019-05-25T18:44:35.629Z,14
2019-05-25T18:46:36.274Z,14
2019-05-25T18:48:35.746Z,14
2019-05-25T18:50:35.735Z,14
2019-05-25T18:52:35.982Z,14
2019-05-25T18:54:35.424Z,14
2019-05-25T18:56:35.718Z,14
2019-05-25T18:58:36.172Z,14
2019-05-25T19:00:35.619Z,14
2019-05-25T19:02:36.110Z,14
2019-05-25T19:05:00.328Z,14
2019-05-25T19:06:42.943Z,14
2019-05-25T19:08:44.314Z,14
2019-05-25T19:10:44.898Z,13.9
2019-05-25T19:12:44.384Z,13.9
2019-05-25T19:14:44.745Z,13.9
2019-05-25T19:16:45.303Z,13.9
2019-05-25T19:18:44.889Z,13.9
2019-05-25T19:20:44.360Z,13.8
2019-05-25T19:22:44.826Z,13.8
2019-05-25T19:24:45.329Z,13.8
2019-05-25T19:26:44.786Z,13.8
2019-05-25T19:28:45.363Z,13.8
2019-05-25T19:30:44.839Z,13.8
2019-05-25T19:32:45.304Z,13.8
2019-05-25T19:35:00.694Z,13.8
2019-05-25T19:36:45.220Z,13.8
2019-05-25T19:38:44.701Z,13.8
2019-05-25T19:40:45.222Z,13.7
2019-05-25T19:42:44.741Z,13.7
2019-05-25T19:44:44.877Z,13.5
2019-05-25T19:46:44.606Z,13.5
2019-05-25T19:48:45.249Z,13.5
2019-05-25T19:50:44.793Z,13.5
2019-05-25T19:52:45.523Z,13.5
2019-05-25T19:54:45.020Z,13.4
2019-05-25T19:56:44.604Z,13.4
2019-05-25T19:58:45.169Z,13.4
2019-05-25T20:00:44.676Z,13.4
2019-05-25T20:02:45.199Z,13.4
2019-05-25T20:04:44.668Z,13.4
2019-05-25T20:06:45.222Z,13.4
2019-05-25T20:08:44.810Z,13.4
2019-05-25T20:10:45.359Z,13.1
2019-05-25T20:12:44.956Z,13.1
2019-05-25T20:14:44.309Z,13.1
2019-05-25T20:16:44.897Z,13.1
2019-05-25T20:18:44.556Z,13.1
2019-05-25T20:20:45.157Z,13
2019-05-25T20:22:44.709Z,13
2019-05-25T20:24:45.249Z,13
2019-05-25T20:26:44.767Z,13
2019-05-25T20:28:45.422Z,13
2019-05-25T20:30:44.947Z,12.9
2019-05-25T20:32:44.446Z,12.9
2019-05-25T20:34:46.446Z,12.8
2019-05-25T20:36:45.238Z,12.8
2019-05-25T20:38:44.690Z,12.8
2019-05-25T20:40:45.357Z,12.8
2019-05-25T20:42:44.896Z,12.8
2019-05-25T20:44:44.427Z,12.8
2019-05-25T20:46:44.950Z,12.8
2019-05-25T20:48:44.538Z,12.8
2019-05-25T20:50:45.115Z,12.8
2019-05-25T20:52:44.627Z,12.8
2019-05-25T20:54:45.101Z,12.7
2019-05-25T20:56:44.614Z,12.7
2019-05-25T20:58:45.157Z,12.7
2019-05-25T21:00:44.673Z,12.7
2019-05-25T21:02:45.182Z,12.7
2019-05-25T21:04:44.764Z,12.7
2019-05-25T21:06:45.219Z,12.7
2019-05-25T21:08:44.770Z,12.7
2019-05-25T21:10:45.404Z,12.6
2019-05-25T21:12:44.935Z,12.6
2019-05-25T21:14:44.429Z,12.5
2019-05-25T21:16:44.923Z,12.5
2019-05-25T21:18:44.533Z,12.5
2019-05-25T21:20:45.032Z,12.4
2019-05-25T21:22:44.431Z,12.4
2019-05-25T21:24:45.020Z,12.4
2019-05-25T21:26:44.618Z,12.4
2019-05-25T21:28:45.468Z,12.4
2019-05-25T21:30:44.915Z,12.3
2019-05-25T21:32:44.394Z,12.3
2019-05-25T21:34:44.799Z,12.2
2019-05-25T21:36:45.288Z,12.2
2019-05-25T21:38:45.320Z,12.2
2019-05-25T21:40:43.309Z,12.1
2019-05-25T21:42:44.670Z,12.1
2019-05-25T21:44:47.743Z,12.1
2019-05-25T21:54:34.379Z,12
2019-05-25T21:56:36.790Z,12
2019-05-25T21:58:36.315Z,11.9
2019-05-25T22:00:36.789Z,11.9
2019-05-25T22:02:36.170Z,11.9
2019-05-25T22:04:36.625Z,11.9
2019-05-25T22:06:41.565Z,11.9
2019-05-25T22:07:31.415Z,11.9
2019-05-25T22:09:30.935Z,11.9
2019-05-25T22:13:32.695Z,11.9
2019-05-25T22:17:58.044Z,12
2019-05-25T22:21:33.182Z,12
2019-05-25T22:23:31.140Z,12
2019-05-25T22:25:31.158Z,12
2019-05-25T22:27:31.112Z,12.1
2019-05-25T22:29:32.509Z,12.1
2019-05-25T22:31:32.986Z,12.2
2019-05-25T22:33:32.465Z,12.2
2019-05-25T22:35:32.959Z,12.2
2019-05-25T22:37:32.384Z,12.2
2019-05-25T22:39:32.862Z,12.2
2019-05-25T22:41:33.217Z,12.3
2019-05-25T22:43:32.701Z,12.3
2019-05-25T22:45:33.225Z,12.3
2019-05-25T22:47:32.725Z,12.3
2019-05-25T22:49:33.188Z,12.3
2019-05-25T22:51:32.630Z,12.3
2019-05-25T22:53:33.130Z,12.3
2019-05-25T22:55:32.668Z,12.3
2019-05-25T22:57:33.172Z,12.3
2019-05-25T22:59:32.699Z,12.3
2019-05-25T23:01:33.248Z,12.3
2019-05-25T23:03:32.783Z,12.3
2019-05-25T23:05:33.400Z,12.3
2019-05-25T23:07:32.928Z,12.3
2019-05-25T23:09:32.486Z,12.3
2019-05-25T23:11:32.877Z,12.3
2019-05-25T23:13:32.337Z,12.3
2019-05-25T23:15:32.807Z,12.3
2019-05-25T23:17:33.263Z,12.3
2019-05-25T23:19:32.779Z,12.3
2019-05-25T23:21:32.300Z,12.3
2019-05-25T23:23:32.710Z,12.3
2019-05-25T23:25:33.244Z,12.3
2019-05-25T23:27:32.856Z,12.3
2019-05-25T23:29:32.347Z,12.3
2019-05-25T23:31:32.743Z,12.3
2019-05-25T23:33:33.205Z,12.3
2019-05-25T23:35:32.676Z,12.3
2019-05-25T23:37:33.115Z,12.2
2019-05-25T23:39:32.534Z,12.2
2019-05-25T23:41:33.230Z,12.2
2019-05-25T23:43:32.656Z,12.2
2019-05-25T23:45:33.161Z,12.2
2019-05-25T23:47:32.674Z,12.1
2019-05-25T23:49:33.174Z,12.1
2019-05-25T23:51:32.726Z,12.1
2019-05-25T23:53:33.178Z,12.1
2019-05-25T23:55:32.555Z,12.1
2019-05-25T23:57:33.004Z,12
2019-05-25T23:59:32.473Z,12
